createdAt,value
2018-05-14T00:00:31.473Z,1001.3
2018-05-14T00:01:33.052Z,1001.3
2018-05-14T00:02:34.660Z,1001.3
2018-05-14T00:03:36.280Z,1001.2
2018-05-14T00:04:37.887Z,1001.2
2018-05-14T00:05:39.505Z,1001.2
2018-05-14T00:06:41.872Z,1001.2
2018-05-14T00:07:43.485Z,1001.2
2018-05-14T00:08:45.113Z,1001.2
2018-05-14T00:09:46.717Z,1001.2
2018-05-14T00:10:48.331Z,1001.2
2018-05-14T00:11:49.945Z,1001.2
2018-05-14T00:12:51.560Z,1001.1
2018-05-14T00:13:53.177Z,1001.2
2018-05-14T00:14:54.793Z,1001.2
2018-05-14T00:15:56.404Z,1001.1
2018-05-14T00:16:58.020Z,1001.1
2018-05-14T00:17:59.633Z,1001.1
2018-05-14T00:19:01.248Z,1001.1
2018-05-14T00:20:02.870Z,1001.0
2018-05-14T00:21:04.486Z,1001.0
2018-05-14T00:22:06.099Z,1001.0
2018-05-14T00:23:07.721Z,1001.0
2018-05-14T00:24:09.329Z,1001.0
2018-05-14T00:25:10.944Z,1001.0
2018-05-14T00:26:12.561Z,1000.9
2018-05-14T00:27:14.172Z,1000.9
2018-05-14T00:28:15.785Z,1000.9
2018-05-14T00:29:17.407Z,1000.9
2018-05-14T00:30:19.021Z,1000.9
2018-05-14T00:31:20.640Z,1001.0
2018-05-14T00:32:22.249Z,1000.9
2018-05-14T00:33:23.864Z,1000.9
2018-05-14T00:34:25.511Z,1000.9
2018-05-14T00:35:27.087Z,1000.9
2018-05-14T00:36:28.707Z,1000.9
2018-05-14T00:37:30.328Z,1000.9
2018-05-14T00:38:31.936Z,1000.9
2018-05-14T00:39:33.558Z,1000.9
2018-05-14T00:40:35.167Z,1000.9
2018-05-14T00:41:36.780Z,1000.8
2018-05-14T00:42:38.397Z,1000.9
2018-05-14T00:43:40.011Z,1000.9
2018-05-14T00:44:41.627Z,1000.8
2018-05-14T00:45:43.243Z,1000.8
2018-05-14T00:46:45.596Z,1000.8
2018-05-14T00:47:47.965Z,1000.8
2018-05-14T00:48:49.880Z,1000.8
2018-05-14T00:49:52.492Z,1000.8
2018-05-14T00:50:55.667Z,1000.8
2018-05-14T00:52:00.073Z,1000.8
2018-05-14T00:53:04.777Z,1000.8
2018-05-14T00:54:06.342Z,1000.8
2018-05-14T00:55:08.348Z,1000.8
2018-05-14T00:56:11.276Z,1000.8
2018-05-14T00:57:13.672Z,1000.8
2018-05-14T00:58:16.094Z,1000.8
2018-05-14T00:59:17.975Z,1000.7
2018-05-14T01:00:19.588Z,1000.7
2018-05-14T01:01:21.768Z,1000.7
2018-05-14T01:02:23.394Z,1000.7
2018-05-14T01:03:25.125Z,1000.7
2018-05-14T01:04:27.219Z,1000.7
2018-05-14T01:05:29.550Z,1000.6
2018-05-14T01:06:31.363Z,1000.6
2018-05-14T01:07:32.974Z,1000.6
2018-05-14T01:08:35.102Z,1000.6
2018-05-14T01:09:38.716Z,1000.6
2018-05-14T01:10:41.123Z,1000.6
2018-05-14T01:11:43.098Z,1000.6
2018-05-14T01:12:45.445Z,1000.6
2018-05-14T01:13:47.630Z,1000.5
2018-05-14T01:14:49.242Z,1000.6
2018-05-14T01:15:50.859Z,1000.6
2018-05-14T01:16:53.403Z,1000.6
2018-05-14T01:17:56.205Z,1000.6
2018-05-14T01:18:58.585Z,1000.6
2018-05-14T01:20:00.967Z,1000.6
2018-05-14T01:21:03.120Z,1000.7
2018-05-14T01:22:04.737Z,1000.7
2018-05-14T01:23:06.626Z,1000.7
2018-05-14T01:24:09.010Z,1000.7
2018-05-14T01:25:11.522Z,1000.7
2018-05-14T01:26:13.920Z,1000.7
2018-05-14T01:27:15.538Z,1000.7
2018-05-14T01:28:17.970Z,1000.7
2018-05-14T01:29:20.100Z,1000.7
2018-05-14T01:30:24.449Z,1000.7
2018-05-14T01:31:28.371Z,1000.7
2018-05-14T01:32:33.188Z,1000.7
2018-05-14T01:33:36.793Z,1000.7
2018-05-14T01:34:39.003Z,1000.7
2018-05-14T01:35:40.620Z,1000.7
2018-05-14T01:36:42.240Z,1000.7
2018-05-14T01:37:44.299Z,1000.7
2018-05-14T01:38:48.753Z,1000.7
2018-05-14T01:39:51.940Z,1000.7
2018-05-14T01:40:54.305Z,1000.7
2018-05-14T01:41:55.975Z,1000.7
2018-05-14T01:42:58.546Z,1000.7
2018-05-14T01:44:00.119Z,1000.7
2018-05-14T01:45:01.738Z,1000.7
2018-05-14T01:46:03.356Z,1000.7
2018-05-14T01:47:04.969Z,1000.7
2018-05-14T01:48:06.591Z,1000.7
2018-05-14T01:49:08.202Z,1000.7
2018-05-14T01:50:09.818Z,1000.7
2018-05-14T01:51:11.435Z,1000.7
2018-05-14T01:52:13.054Z,1000.7
2018-05-14T01:53:14.662Z,1000.7
2018-05-14T01:54:16.274Z,1000.6
2018-05-14T01:55:17.895Z,1000.6
2018-05-14T01:56:19.506Z,1000.5
2018-05-14T01:57:21.125Z,1000.6
2018-05-14T01:58:22.744Z,1000.5
2018-05-14T01:59:24.360Z,1000.5
2018-05-14T02:00:25.971Z,1000.5
2018-05-14T02:01:27.587Z,1000.5
2018-05-14T02:02:29.198Z,1000.5
2018-05-14T02:03:30.821Z,1000.5
2018-05-14T02:04:32.431Z,1000.5
2018-05-14T02:05:34.049Z,1000.5
2018-05-14T02:06:35.665Z,1000.5
2018-05-14T02:07:37.278Z,1000.5
2018-05-14T02:08:38.899Z,1000.5
2018-05-14T02:09:40.516Z,1000.5
2018-05-14T02:10:42.134Z,1000.6
2018-05-14T02:11:43.753Z,1000.6
2018-05-14T02:12:45.374Z,1000.6
2018-05-14T02:13:46.981Z,1000.6
2018-05-14T02:14:48.596Z,1000.6
2018-05-14T02:15:50.207Z,1000.6
2018-05-14T02:16:51.822Z,1000.6
2018-05-14T02:17:53.444Z,1000.6
2018-05-14T02:18:55.064Z,1000.7
2018-05-14T02:19:56.673Z,1000.7
2018-05-14T02:20:58.285Z,1000.6
2018-05-14T02:21:59.902Z,1000.6
2018-05-14T02:23:01.515Z,1000.6
2018-05-14T02:24:03.130Z,1000.7
2018-05-14T02:25:04.748Z,1000.6
2018-05-14T02:26:06.366Z,1000.6
2018-05-14T02:27:07.979Z,1000.6
2018-05-14T02:28:09.590Z,1000.6
2018-05-14T02:29:11.207Z,1000.6
2018-05-14T02:30:12.825Z,1000.6
2018-05-14T02:31:14.440Z,1000.6
2018-05-14T02:32:16.053Z,1000.6
2018-05-14T02:33:17.670Z,1000.6
2018-05-14T02:34:19.284Z,1000.6
2018-05-14T02:35:20.902Z,1000.6
2018-05-14T02:36:22.512Z,1000.6
2018-05-14T02:37:24.125Z,1000.6
2018-05-14T02:38:25.744Z,1000.6
2018-05-14T02:39:27.359Z,1000.6
2018-05-14T02:40:28.976Z,1000.6
2018-05-14T02:41:30.584Z,1000.6
2018-05-14T02:42:32.204Z,1000.6
2018-05-14T02:43:33.820Z,1000.6
2018-05-14T02:44:35.431Z,1000.6
2018-05-14T02:45:37.055Z,1000.6
2018-05-14T02:46:38.676Z,1000.6
2018-05-14T02:47:40.283Z,1000.6
2018-05-14T02:48:41.899Z,1000.6
2018-05-14T02:49:43.519Z,1000.6
2018-05-14T02:50:45.127Z,1000.6
2018-05-14T02:51:46.740Z,1000.6
2018-05-14T02:52:48.357Z,1000.6
2018-05-14T02:53:49.970Z,1000.6
2018-05-14T02:54:51.589Z,1000.6
2018-05-14T02:55:53.205Z,1000.6
2018-05-14T02:56:54.822Z,1000.6
2018-05-14T02:57:56.547Z,1000.6
2018-05-14T02:58:58.052Z,1000.7
2018-05-14T02:59:59.662Z,1000.6
2018-05-14T03:01:01.282Z,1000.6
2018-05-14T03:02:02.900Z,1000.6
2018-05-14T03:03:04.522Z,1000.6
2018-05-14T03:04:06.136Z,1000.6
2018-05-14T03:05:07.746Z,1000.6
2018-05-14T03:06:09.930Z,1000.6
2018-05-14T03:07:12.116Z,1000.6
2018-05-14T03:08:13.736Z,1000.6
2018-05-14T03:09:15.361Z,1000.6
2018-05-14T03:10:16.971Z,1000.5
2018-05-14T03:11:18.583Z,1000.5
2018-05-14T03:12:20.194Z,1000.5
2018-05-14T03:13:21.815Z,1000.4
2018-05-14T03:14:23.423Z,1000.5
2018-05-14T03:15:25.038Z,1000.4
2018-05-14T03:16:26.654Z,1000.4
2018-05-14T03:17:28.261Z,1000.4
2018-05-14T03:18:29.874Z,1000.3
2018-05-14T03:19:31.487Z,1000.4
2018-05-14T03:20:33.101Z,1000.4
2018-05-14T03:21:34.721Z,1000.4
2018-05-14T03:22:36.346Z,1000.4
2018-05-14T03:23:37.951Z,1000.4
2018-05-14T03:24:39.571Z,1000.5
2018-05-14T03:25:41.184Z,1000.5
2018-05-14T03:26:42.796Z,1000.4
2018-05-14T03:27:44.416Z,1000.5
2018-05-14T03:28:46.034Z,1000.5
2018-05-14T03:29:47.651Z,1000.4
2018-05-14T03:30:49.275Z,1000.5
2018-05-14T03:31:50.890Z,1000.5
2018-05-14T03:32:52.498Z,1000.5
2018-05-14T03:33:54.114Z,1000.5
2018-05-14T03:34:55.733Z,1000.4
2018-05-14T03:35:57.349Z,1000.5
2018-05-14T03:36:58.966Z,1000.4
2018-05-14T03:38:00.585Z,1000.5
2018-05-14T03:39:02.202Z,1000.5
2018-05-14T03:40:03.817Z,1000.5
2018-05-14T03:41:05.428Z,1000.5
2018-05-14T03:42:07.051Z,1000.5
2018-05-14T03:43:08.673Z,1000.5
2018-05-14T03:44:10.285Z,1000.5
2018-05-14T03:45:11.903Z,1000.5
2018-05-14T03:46:13.525Z,1000.5
2018-05-14T03:47:15.137Z,1000.5
2018-05-14T03:48:16.755Z,1000.5
2018-05-14T03:49:18.378Z,1000.5
2018-05-14T03:50:19.999Z,1000.5
2018-05-14T03:51:21.625Z,1000.5
2018-05-14T03:52:23.236Z,1000.5
2018-05-14T03:53:24.852Z,1000.5
2018-05-14T03:54:26.476Z,1000.5
2018-05-14T03:55:28.092Z,1000.5
2018-05-14T03:56:29.712Z,1000.5
2018-05-14T03:57:31.329Z,1000.5
2018-05-14T03:58:32.952Z,1000.5
2018-05-14T03:59:34.570Z,1000.5
2018-05-14T04:00:36.191Z,1000.5
2018-05-14T04:01:37.974Z,1000.5
2018-05-14T04:02:39.585Z,1000.5
2018-05-14T04:03:41.214Z,1000.5
2018-05-14T04:04:42.832Z,1000.5
2018-05-14T04:05:44.448Z,1000.4
2018-05-14T04:06:46.063Z,1000.5
2018-05-14T04:07:47.679Z,1000.5
2018-05-14T04:08:49.302Z,1000.5
2018-05-14T04:09:50.921Z,1000.5
2018-05-14T04:10:52.542Z,1000.5
2018-05-14T04:11:54.167Z,1000.5
2018-05-14T04:12:55.778Z,1000.5
2018-05-14T04:13:57.399Z,1000.5
2018-05-14T04:14:59.014Z,1000.5
2018-05-14T04:16:00.629Z,1000.5
2018-05-14T04:17:02.250Z,1000.5
2018-05-14T04:18:03.867Z,1000.5
2018-05-14T04:19:05.483Z,1000.5
2018-05-14T04:20:07.110Z,1000.5
2018-05-14T04:21:08.732Z,1000.5
2018-05-14T04:22:10.355Z,1000.5
2018-05-14T04:23:11.970Z,1000.5
2018-05-14T04:24:13.593Z,1000.5
2018-05-14T04:25:15.208Z,1000.6
2018-05-14T04:26:16.830Z,1000.6
2018-05-14T04:27:18.447Z,1000.6
2018-05-14T04:28:20.070Z,1000.6
2018-05-14T04:29:21.687Z,1000.6
2018-05-14T04:30:23.305Z,1000.6
2018-05-14T04:31:24.930Z,1000.6
2018-05-14T04:32:26.547Z,1000.6
2018-05-14T04:33:28.165Z,1000.6
2018-05-14T04:34:29.784Z,1000.5
2018-05-14T04:35:31.407Z,1000.6
2018-05-14T04:36:33.034Z,1000.5
2018-05-14T04:37:34.652Z,1000.5
2018-05-14T04:38:36.267Z,1000.5
2018-05-14T04:39:37.890Z,1000.5
2018-05-14T04:40:39.512Z,1000.5
2018-05-14T04:41:41.130Z,1000.6
2018-05-14T04:42:42.758Z,1000.6
2018-05-14T04:43:44.370Z,1000.6
2018-05-14T04:44:45.991Z,1000.6
2018-05-14T04:45:47.617Z,1000.6
2018-05-14T04:46:49.237Z,1000.6
2018-05-14T04:47:50.856Z,1000.6
2018-05-14T04:48:52.476Z,1000.6
2018-05-14T04:49:54.104Z,1000.6
2018-05-14T04:50:55.717Z,1000.6
2018-05-14T04:51:57.343Z,1000.6
2018-05-14T04:52:58.952Z,1000.6
2018-05-14T04:54:00.573Z,1000.6
2018-05-14T04:55:02.201Z,1000.6
2018-05-14T04:56:03.822Z,1000.6
2018-05-14T04:57:05.448Z,1000.6
2018-05-14T04:58:07.065Z,1000.6
2018-05-14T04:59:08.738Z,1000.6
2018-05-14T05:00:10.307Z,1000.7
2018-05-14T05:01:11.929Z,1000.6
2018-05-14T05:02:13.556Z,1000.7
2018-05-14T05:03:15.171Z,1000.7
2018-05-14T05:04:16.799Z,1000.7
2018-05-14T05:05:18.420Z,1000.7
2018-05-14T05:06:20.040Z,1000.7
2018-05-14T05:07:21.660Z,1000.7
2018-05-14T05:08:23.277Z,1000.7
2018-05-14T05:09:24.904Z,1000.7
2018-05-14T05:10:26.556Z,1000.7
2018-05-14T05:11:28.180Z,1000.7
2018-05-14T05:12:29.765Z,1000.7
2018-05-14T05:13:31.382Z,1000.7
2018-05-14T05:14:33.012Z,1000.7
2018-05-14T05:15:34.628Z,1000.7
2018-05-14T05:16:36.250Z,1000.7
2018-05-14T05:17:37.876Z,1000.7
2018-05-14T05:18:39.501Z,1000.7
2018-05-14T05:19:41.117Z,1000.7
2018-05-14T05:20:42.740Z,1000.7
2018-05-14T05:21:44.356Z,1000.7
2018-05-14T05:22:45.987Z,1000.7
2018-05-14T05:23:47.602Z,1000.7
2018-05-14T05:24:49.226Z,1000.7
2018-05-14T05:25:50.845Z,1000.7
2018-05-14T05:26:52.473Z,1000.7
2018-05-14T05:27:54.088Z,1000.7
2018-05-14T05:28:55.717Z,1000.7
2018-05-14T05:29:57.338Z,1000.7
2018-05-14T05:30:58.953Z,1000.8
2018-05-14T05:32:00.576Z,1000.8
2018-05-14T05:33:02.193Z,1000.8
2018-05-14T05:34:03.811Z,1000.8
2018-05-14T05:35:05.442Z,1000.8
2018-05-14T05:36:07.061Z,1000.8
2018-05-14T05:37:08.682Z,1000.8
2018-05-14T05:38:10.305Z,1000.8
2018-05-14T05:39:11.925Z,1000.8
2018-05-14T05:40:13.551Z,1000.8
2018-05-14T05:41:15.175Z,1000.8
2018-05-14T05:42:16.797Z,1000.8
2018-05-14T05:43:18.417Z,1000.8
2018-05-14T05:44:20.035Z,1000.8
2018-05-14T05:45:21.745Z,1000.8
2018-05-14T05:46:23.277Z,1000.8
2018-05-14T05:47:24.905Z,1000.8
2018-05-14T05:48:26.529Z,1000.8
2018-05-14T05:49:28.144Z,1000.8
2018-05-14T05:50:29.773Z,1000.9
2018-05-14T05:51:31.389Z,1000.8
2018-05-14T05:52:33.055Z,1000.8
2018-05-14T05:53:34.632Z,1000.8
2018-05-14T05:54:36.259Z,1000.9
2018-05-14T05:55:37.877Z,1000.8
2018-05-14T05:56:39.494Z,1000.8
2018-05-14T05:57:41.119Z,1000.9
2018-05-14T05:58:42.737Z,1000.9
2018-05-14T05:59:44.363Z,1000.9
2018-05-14T06:00:45.991Z,1000.9
2018-05-14T06:01:47.611Z,1001.0
2018-05-14T06:02:49.231Z,1001.0
2018-05-14T06:03:50.855Z,1001.0
2018-05-14T06:04:52.471Z,1001.0
2018-05-14T06:05:54.099Z,1001.0
2018-05-14T06:06:55.716Z,1001.0
2018-05-14T06:07:57.346Z,1001.1
2018-05-14T06:08:58.967Z,1001.0
2018-05-14T06:10:00.595Z,1001.0
2018-05-14T06:11:02.225Z,1001.1
2018-05-14T06:12:03.847Z,1001.1
2018-05-14T06:13:05.475Z,1001.1
2018-05-14T06:14:07.092Z,1001.2
2018-05-14T06:15:08.717Z,1001.2
2018-05-14T06:16:10.344Z,1001.3
2018-05-14T06:17:11.964Z,1001.2
2018-05-14T06:18:13.588Z,1001.2
2018-05-14T06:19:15.201Z,1001.2
2018-05-14T06:20:16.830Z,1001.2
2018-05-14T06:21:18.457Z,1001.2
2018-05-14T06:22:20.149Z,1001.2
2018-05-14T06:23:21.700Z,1001.2
2018-05-14T06:24:23.322Z,1001.2
2018-05-14T06:25:24.939Z,1001.2
2018-05-14T06:26:26.566Z,1001.2
2018-05-14T06:27:28.188Z,1001.2
2018-05-14T06:28:29.810Z,1001.2
2018-05-14T06:29:31.435Z,1001.3
2018-05-14T06:30:33.060Z,1001.3
2018-05-14T06:31:34.677Z,1001.3
2018-05-14T06:32:36.298Z,1001.3
2018-05-14T06:33:37.918Z,1001.4
2018-05-14T06:34:39.543Z,1001.4
2018-05-14T06:35:41.196Z,1001.4
2018-05-14T06:36:42.794Z,1001.4
2018-05-14T06:37:44.415Z,1001.3
2018-05-14T06:38:46.035Z,1001.3
2018-05-14T06:39:47.658Z,1001.3
2018-05-14T06:40:49.276Z,1001.3
2018-05-14T06:41:50.902Z,1001.3
2018-05-14T06:42:52.521Z,1001.3
2018-05-14T06:43:54.144Z,1001.3
2018-05-14T06:44:55.771Z,1001.3
2018-05-14T06:45:57.391Z,1001.3
2018-05-14T06:46:59.019Z,1001.3
2018-05-14T06:48:00.645Z,1001.3
2018-05-14T06:49:02.272Z,1001.2
2018-05-14T06:50:03.895Z,1001.2
2018-05-14T06:51:05.523Z,1001.3
2018-05-14T06:52:07.236Z,1001.3
2018-05-14T06:53:08.770Z,1001.2
2018-05-14T06:54:10.442Z,1001.2
2018-05-14T06:55:12.052Z,1001.3
2018-05-14T06:56:13.646Z,1001.3
2018-05-14T06:57:15.271Z,1001.3
2018-05-14T06:58:16.893Z,1001.3
2018-05-14T06:59:18.521Z,1001.4
2018-05-14T07:00:20.139Z,1001.4
2018-05-14T07:01:21.768Z,1001.4
2018-05-14T07:02:23.393Z,1001.3
2018-05-14T07:03:25.016Z,1001.4
2018-05-14T07:04:26.637Z,1001.4
2018-05-14T07:05:28.269Z,1001.3
2018-05-14T07:06:29.898Z,1001.4
2018-05-14T07:07:31.523Z,1001.4
2018-05-14T07:08:33.141Z,1001.3
2018-05-14T07:09:34.772Z,1001.4
2018-05-14T07:10:36.399Z,1001.4
2018-05-14T07:11:38.025Z,1001.5
2018-05-14T07:12:39.649Z,1001.5
2018-05-14T07:13:41.283Z,1001.5
2018-05-14T07:14:42.910Z,1001.5
2018-05-14T07:15:44.531Z,1001.4
2018-05-14T07:16:46.161Z,1001.5
2018-05-14T07:17:47.786Z,1001.4
2018-05-14T07:18:49.416Z,1001.4
2018-05-14T07:19:51.038Z,1001.4
2018-05-14T07:20:52.666Z,1001.5
2018-05-14T07:21:54.295Z,1001.4
2018-05-14T07:22:55.918Z,1001.4
2018-05-14T07:23:57.541Z,1001.4
2018-05-14T07:24:59.166Z,1001.6
2018-05-14T07:26:00.800Z,1001.5
2018-05-14T07:27:02.425Z,1001.5
2018-05-14T07:28:04.050Z,1001.6
2018-05-14T07:29:05.674Z,1001.6
2018-05-14T07:30:07.327Z,1001.6
2018-05-14T07:31:08.944Z,1001.6
2018-05-14T07:32:10.567Z,1001.5
2018-05-14T07:33:12.193Z,1001.4
2018-05-14T07:34:13.825Z,1001.5
2018-05-14T07:35:15.453Z,1001.7
2018-05-14T07:36:17.086Z,1001.7
2018-05-14T07:37:18.712Z,1001.7
2018-05-14T07:38:20.336Z,1001.6
2018-05-14T07:39:21.967Z,1001.6
2018-05-14T07:40:23.653Z,1001.7
2018-05-14T07:41:25.231Z,1001.7
2018-05-14T07:42:26.860Z,1001.7
2018-05-14T07:43:28.493Z,1001.6
2018-05-14T07:44:30.122Z,1001.6
2018-05-14T07:45:31.753Z,1001.7
2018-05-14T07:46:33.378Z,1001.7
2018-05-14T07:47:35.007Z,1001.6
2018-05-14T07:48:36.643Z,1001.5
2018-05-14T07:49:38.273Z,1001.6
2018-05-14T07:50:40.007Z,1001.6
2018-05-14T07:51:41.531Z,1001.7
2018-05-14T07:52:43.161Z,1001.6
2018-05-14T07:53:44.793Z,1001.7
2018-05-14T07:54:46.427Z,1001.7
2018-05-14T07:55:48.062Z,1001.8
2018-05-14T07:56:49.858Z,1001.8
2018-05-14T07:57:51.326Z,1001.8
2018-05-14T07:58:52.958Z,1001.8
2018-05-14T07:59:54.584Z,1001.8
2018-05-14T08:00:56.219Z,1001.9
2018-05-14T08:01:57.854Z,1001.8
2018-05-14T08:02:59.481Z,1001.9
2018-05-14T08:04:01.124Z,1001.9
2018-05-14T08:05:02.752Z,1001.9
2018-05-14T08:06:04.384Z,1001.8
2018-05-14T08:07:06.021Z,1001.9
2018-05-14T08:08:07.659Z,1001.9
2018-05-14T08:09:09.290Z,1001.9
2018-05-14T08:10:10.930Z,1001.9
2018-05-14T08:11:12.567Z,1001.8
2018-05-14T08:12:14.201Z,1001.8
2018-05-14T08:13:15.843Z,1001.8
2018-05-14T08:14:17.478Z,1001.8
2018-05-14T08:15:19.115Z,1001.8
2018-05-14T08:16:20.840Z,1001.9
2018-05-14T08:17:22.476Z,1001.9
2018-05-14T08:18:24.120Z,1001.9
2018-05-14T08:19:25.751Z,1001.9
2018-05-14T08:20:27.384Z,1001.8
2018-05-14T08:21:29.024Z,1001.8
2018-05-14T08:22:30.661Z,1001.8
2018-05-14T08:23:32.399Z,1001.8
2018-05-14T08:24:33.936Z,1001.8
2018-05-14T08:25:35.581Z,1001.8
2018-05-14T08:26:37.216Z,1001.8
2018-05-14T08:27:38.859Z,1001.8
2018-05-14T08:28:40.493Z,1001.8
2018-05-14T08:29:42.128Z,1001.8
2018-05-14T08:30:43.773Z,1001.8
2018-05-14T08:31:45.411Z,1001.8
2018-05-14T08:32:47.045Z,1001.8
2018-05-14T08:33:48.692Z,1001.7
2018-05-14T08:34:50.326Z,1001.7
2018-05-14T08:35:51.961Z,1001.8
2018-05-14T08:36:53.600Z,1001.7
2018-05-14T08:37:55.244Z,1001.8
2018-05-14T08:38:56.889Z,1001.8
2018-05-14T08:39:58.721Z,1001.8
2018-05-14T08:41:00.162Z,1001.8
2018-05-14T08:42:01.802Z,1001.8
2018-05-14T08:43:03.437Z,1001.9
2018-05-14T08:44:05.080Z,1001.9
2018-05-14T08:45:06.720Z,1001.9
2018-05-14T08:46:08.360Z,1001.9
2018-05-14T08:47:09.998Z,1001.9
2018-05-14T08:48:11.635Z,1001.9
2018-05-14T08:49:13.277Z,1001.9
2018-05-14T08:50:14.916Z,1001.9
2018-05-14T08:51:16.556Z,1001.9
2018-05-14T08:52:18.201Z,1002.0
2018-05-14T08:53:19.837Z,1002.0
2018-05-14T08:54:21.566Z,1001.9
2018-05-14T08:55:23.117Z,1001.9
2018-05-14T08:56:24.760Z,1001.8
2018-05-14T08:57:26.396Z,1001.8
2018-05-14T08:58:28.035Z,1001.8
2018-05-14T08:59:29.682Z,1001.8
2018-05-14T09:00:31.328Z,1001.8
2018-05-14T09:01:32.971Z,1001.9
2018-05-14T09:02:34.612Z,1001.9
2018-05-14T09:03:36.249Z,1002.0
2018-05-14T09:04:37.896Z,1001.9
2018-05-14T09:05:39.537Z,1001.9
2018-05-14T09:06:41.176Z,1001.8
2018-05-14T09:07:42.817Z,1001.9
2018-05-14T09:08:44.525Z,1001.8
2018-05-14T09:09:46.100Z,1001.9
2018-05-14T09:10:47.745Z,1001.9
2018-05-14T09:11:49.389Z,1001.9
2018-05-14T09:12:51.027Z,1001.9
2018-05-14T09:13:52.674Z,1001.9
2018-05-14T09:14:54.313Z,1001.8
2018-05-14T09:15:58.130Z,1001.9
2018-05-14T09:16:59.939Z,1001.9
2018-05-14T09:18:01.567Z,1001.9
2018-05-14T09:19:03.228Z,1001.9
2018-05-14T09:20:04.998Z,1001.9
2018-05-14T09:21:06.815Z,1001.9
2018-05-14T09:22:08.455Z,1001.8
2018-05-14T09:23:10.333Z,1001.8
2018-05-14T09:24:11.985Z,1001.9
2018-05-14T09:25:13.627Z,1001.8
2018-05-14T09:26:15.270Z,1001.8
2018-05-14T09:27:16.908Z,1001.8
2018-05-14T09:28:18.549Z,1001.8
2018-05-14T09:29:20.195Z,1001.9
2018-05-14T09:30:21.835Z,1002.0
2018-05-14T09:31:23.538Z,1001.9
2018-05-14T09:32:25.121Z,1001.9
2018-05-14T09:33:26.767Z,1001.8
2018-05-14T09:34:28.404Z,1001.8
2018-05-14T09:35:30.046Z,1001.9
2018-05-14T09:36:31.693Z,1001.8
2018-05-14T09:37:33.348Z,1001.9
2018-05-14T09:38:34.970Z,1001.9
2018-05-14T09:39:36.616Z,1001.9
2018-05-14T09:40:38.252Z,1001.9
2018-05-14T09:41:39.900Z,1001.9
2018-05-14T09:42:41.538Z,1001.9
2018-05-14T09:43:43.182Z,1001.9
2018-05-14T09:44:44.824Z,1001.9
2018-05-14T09:45:46.468Z,1001.9
2018-05-14T09:46:48.109Z,1002.0
2018-05-14T09:47:49.753Z,1001.9
2018-05-14T09:48:51.394Z,1001.9
2018-05-14T09:49:53.043Z,1001.9
2018-05-14T09:50:54.681Z,1001.9
2018-05-14T09:51:56.329Z,1001.9
2018-05-14T09:52:57.971Z,1001.8
2018-05-14T09:53:59.613Z,1001.9
2018-05-14T09:55:01.257Z,1001.9
2018-05-14T09:56:02.898Z,1001.8
2018-05-14T09:57:04.542Z,1001.9
2018-05-14T09:58:06.188Z,1001.9
2018-05-14T09:59:07.832Z,1001.9
2018-05-14T10:00:09.471Z,1001.9
2018-05-14T10:01:11.113Z,1001.9
2018-05-14T10:02:12.763Z,1002.0
2018-05-14T10:03:14.405Z,1002.0
2018-05-14T10:04:16.047Z,1001.9
2018-05-14T10:05:17.689Z,1001.9
2018-05-14T10:06:19.336Z,1002.0
2018-05-14T10:07:20.979Z,1002.0
2018-05-14T10:08:22.621Z,1001.9
2018-05-14T10:09:24.262Z,1002.0
2018-05-14T10:10:25.905Z,1002.0
2018-05-14T10:11:27.549Z,1001.9
2018-05-14T10:12:29.190Z,1001.9
2018-05-14T10:13:30.833Z,1001.9
2018-05-14T10:14:32.478Z,1001.9
2018-05-14T10:15:34.117Z,1002.0
2018-05-14T10:16:35.761Z,1002.0
2018-05-14T10:17:37.408Z,1002.0
2018-05-14T10:18:39.117Z,1002.0
2018-05-14T10:19:40.691Z,1002.0
2018-05-14T10:20:42.337Z,1001.9
2018-05-14T10:21:43.975Z,1002.0
2018-05-14T10:22:45.620Z,1001.9
2018-05-14T10:23:47.257Z,1002.0
2018-05-14T10:24:48.906Z,1002.0
2018-05-14T10:25:50.787Z,1001.9
2018-05-14T10:26:52.188Z,1001.9
2018-05-14T10:27:53.836Z,1002.0
2018-05-14T10:28:55.475Z,1001.9
2018-05-14T10:29:57.126Z,1001.9
2018-05-14T10:30:58.762Z,1002.0
2018-05-14T10:32:00.485Z,1001.9
2018-05-14T10:33:02.051Z,1002.0
2018-05-14T10:34:03.694Z,1002.0
2018-05-14T10:35:05.347Z,1002.0
2018-05-14T10:36:06.983Z,1001.9
2018-05-14T10:37:08.633Z,1002.0
2018-05-14T10:38:10.275Z,1002.0
2018-05-14T10:39:11.924Z,1002.0
2018-05-14T10:40:13.569Z,1002.0
2018-05-14T10:41:15.218Z,1002.0
2018-05-14T10:42:16.863Z,1001.9
2018-05-14T10:43:18.507Z,1001.9
2018-05-14T10:44:20.153Z,1002.0
2018-05-14T10:45:21.791Z,1002.0
2018-05-14T10:46:23.438Z,1001.7
2018-05-14T10:47:25.082Z,1002.0
2018-05-14T10:48:26.733Z,1002.0
2018-05-14T10:49:28.374Z,1002.0
2018-05-14T10:50:30.020Z,1002.0
2018-05-14T10:51:31.659Z,1002.0
2018-05-14T10:52:33.302Z,1002.1
2018-05-14T10:53:34.953Z,1002.0
2018-05-14T10:54:36.596Z,1002.1
2018-05-14T10:55:38.267Z,1002.1
2018-05-14T10:56:39.908Z,1002.0
2018-05-14T10:57:41.554Z,1002.1
2018-05-14T10:58:43.204Z,1002.1
2018-05-14T10:59:44.845Z,1002.1
2018-05-14T11:00:46.489Z,1002.2
2018-05-14T11:01:48.136Z,1002.2
2018-05-14T11:02:49.783Z,1002.2
2018-05-14T11:03:51.485Z,1002.1
2018-05-14T11:04:53.073Z,1002.1
2018-05-14T11:05:54.715Z,1002.2
2018-05-14T11:06:56.360Z,1002.2
2018-05-14T11:07:58.002Z,1002.2
2018-05-14T11:08:59.646Z,1002.2
2018-05-14T11:10:01.289Z,1002.2
2018-05-14T11:11:02.931Z,1002.2
2018-05-14T11:12:04.577Z,1002.2
2018-05-14T11:13:06.221Z,1002.3
2018-05-14T11:14:07.862Z,1002.3
2018-05-14T11:15:09.513Z,1002.2
2018-05-14T11:16:11.159Z,1002.2
2018-05-14T11:17:12.798Z,1001.9
2018-05-14T11:18:14.463Z,1002.0
2018-05-14T11:19:16.102Z,1001.9
2018-05-14T11:20:17.741Z,1001.9
2018-05-14T11:21:19.388Z,1001.9
2018-05-14T11:22:21.023Z,1001.9
2018-05-14T11:23:22.661Z,1001.8
2018-05-14T11:24:24.309Z,1001.9
2018-05-14T11:25:25.950Z,1001.8
2018-05-14T11:26:27.591Z,1001.9
2018-05-14T11:27:29.285Z,1001.9
2018-05-14T11:28:30.871Z,1001.9
2018-05-14T11:29:32.504Z,1001.9
2018-05-14T11:30:34.148Z,1001.8
2018-05-14T11:31:35.795Z,1001.9
2018-05-14T11:32:37.433Z,1001.9
2018-05-14T11:33:39.078Z,1001.9
2018-05-14T11:34:40.791Z,1001.9
2018-05-14T11:35:42.357Z,1001.9
2018-05-14T11:36:44.003Z,1001.9
2018-05-14T11:37:45.645Z,1001.9
2018-05-14T11:38:47.285Z,1001.9
2018-05-14T11:39:48.931Z,1001.9
2018-05-14T11:40:50.569Z,1001.9
2018-05-14T11:41:52.205Z,1002.0
2018-05-14T11:42:53.987Z,1001.9
2018-05-14T11:43:55.768Z,1001.9
2018-05-14T11:44:57.520Z,1002.0
2018-05-14T11:45:59.140Z,1001.9
2018-05-14T11:47:00.795Z,1001.9
2018-05-14T11:48:02.425Z,1002.0
2018-05-14T11:49:04.070Z,1002.0
2018-05-14T11:50:05.709Z,1002.0
2018-05-14T11:51:07.351Z,1002.0
2018-05-14T11:52:08.997Z,1001.9
2018-05-14T11:53:10.634Z,1002.0
2018-05-14T11:54:12.280Z,1002.0
2018-05-14T11:55:13.923Z,1002.0
2018-05-14T11:56:15.557Z,1002.0
2018-05-14T11:57:17.197Z,1001.9
2018-05-14T11:58:18.848Z,1002.0
2018-05-14T11:59:20.480Z,1002.0
2018-05-14T12:00:22.120Z,1002.0
2018-05-14T12:01:23.786Z,1002.0
2018-05-14T12:02:25.424Z,1002.0
2018-05-14T12:03:27.069Z,1002.1
2018-05-14T12:04:28.715Z,1002.1
2018-05-14T12:05:30.349Z,1002.1
2018-05-14T12:06:31.995Z,1002.1
2018-05-14T12:07:33.641Z,1002.1
2018-05-14T12:08:35.284Z,1002.1
2018-05-14T12:09:36.920Z,1002.1
2018-05-14T12:10:38.561Z,1002.0
2018-05-14T12:11:40.204Z,1002.0
2018-05-14T12:12:42.444Z,1002.1
2018-05-14T12:13:43.430Z,1002.1
2018-05-14T12:14:45.070Z,1002.1
2018-05-14T12:15:46.716Z,1002.1
2018-05-14T12:16:48.356Z,1002.1
2018-05-14T12:17:49.994Z,1002.1
2018-05-14T12:18:51.633Z,1002.0
2018-05-14T12:19:53.271Z,1002.0
2018-05-14T12:20:54.908Z,1002.0
2018-05-14T12:21:56.556Z,1002.0
2018-05-14T12:22:58.198Z,1002.0
2018-05-14T12:23:59.836Z,1002.0
2018-05-14T12:25:01.476Z,1002.0
2018-05-14T12:26:03.120Z,1002.0
2018-05-14T12:27:04.761Z,1002.0
2018-05-14T12:28:06.405Z,1002.0
2018-05-14T12:29:08.042Z,1002.0
2018-05-14T12:30:09.684Z,1002.1
2018-05-14T12:31:11.321Z,1002.0
2018-05-14T12:32:12.964Z,1002.0
2018-05-14T12:33:14.606Z,1002.1
2018-05-14T12:34:16.242Z,1002.1
2018-05-14T12:35:17.882Z,1002.0
2018-05-14T12:36:19.532Z,1002.1
2018-05-14T12:37:21.169Z,1002.1
2018-05-14T12:38:22.803Z,1002.0
2018-05-14T12:39:24.444Z,1002.0
2018-05-14T12:40:26.080Z,1002.1
2018-05-14T12:41:27.724Z,1002.0
2018-05-14T12:42:29.359Z,1002.0
2018-05-14T12:43:31.001Z,1002.0
2018-05-14T12:44:32.639Z,1002.0
2018-05-14T12:45:34.281Z,1001.8
2018-05-14T12:46:35.919Z,1001.9
2018-05-14T12:47:37.554Z,1001.9
2018-05-14T12:48:39.198Z,1001.9
2018-05-14T12:49:40.843Z,1001.9